Time;durP1;ratioP1;P1;durP2;ratioP2;P2;SDS_P1;SDS_P2;PMS_P1;PMS_P2;Temp;Humidity;BMP_temperature;BMP_pressure;BME280_temperature;BME280_humidity;BME280_pressure;Samples;Min_cycle;Max_cycle;Signal;HPM_P1;HPM_P2
2023/07/03 00:01:18;;;;;;;9.57;4.50;;;;;;;;;;5045952;28;20216;-62
2023/07/03 00:03:45;;;;;;;6.85;3.63;;;;;;;;;;5047530;28;20219;-62
2023/07/03 00:06:12;;;;;;;7.47;4.30;;;;;;;;;;5047513;28;20590;-62
2023/07/03 00:08:39;;;;;;;7.30;3.67;;;;;;;;;;5046344;28;20204;-62
2023/07/03 00:11:06;;;;;;;4.85;3.42;;;;;;;;;;5046839;28;20223;-62
2023/07/03 00:13:33;;;;;;;5.07;3.80;;;;;;;;;;5047177;28;20745;-62
2023/07/03 00:16:03;;;;;;;5.50;3.38;;;;;;;;;;5047352;28;20208;-62
2023/07/03 00:18:30;;;;;;;8.00;3.85;;;;;;;;;;5046545;28;20231;-62
2023/07/03 00:21:08;;;;;;;5.30;3.80;;;;;;;;;;5046934;28;22134;-62
2023/07/03 00:23:35;;;;;;;7.22;3.95;;;;;;;;;;5046521;28;20218;-61
2023/07/03 00:26:02;;;;;;;7.07;4.35;;;;;;;;;;5046933;28;20203;-61
2023/07/03 00:28:30;;;;;;;4.75;3.65;;;;;;;;;;5046022;28;20199;-62
2023/07/03 00:30:57;;;;;;;5.65;3.83;;;;;;;;;;5046779;28;20208;-62
2023/07/03 00:33:25;;;;;;;5.55;3.55;;;;;;;;;;5046578;28;20214;-62
2023/07/03 00:35:52;;;;;;;8.52;3.83;;;;;;;;;;5046625;28;20246;-61
2023/07/03 00:38:19;;;;;;;7.05;3.88;;;;;;;;;;5045989;28;20220;-61
2023/07/03 00:40:46;;;;;;;6.65;3.78;;;;;;;;;;5046279;28;20257;-62
2023/07/03 00:43:14;;;;;;;5.20;3.80;;;;;;;;;;5046747;28;20227;-61
2023/07/03 00:45:41;;;;;;;8.40;3.72;;;;;;;;;;5046569;28;20251;-61
2023/07/03 00:48:08;;;;;;;5.15;3.50;;;;;;;;;;5046388;28;20219;-62
2023/07/03 00:50:36;;;;;;;9.15;3.53;;;;;;;;;;5045928;28;20218;-62
2023/07/03 00:53:05;;;;;;;10.07;3.90;;;;;;;;;;5046281;28;20625;-61
2023/07/03 00:55:32;;;;;;;5.07;3.58;;;;;;;;;;5044816;28;20549;-62
2023/07/03 00:57:59;;;;;;;6.32;3.95;;;;;;;;;;5045393;28;20255;-62
2023/07/03 01:00:30;;;;;;;8.02;3.78;;;;;;;;;;5031707;28;20890;-61
2023/07/03 01:03:00;;;;;;;7.28;3.90;;;;;;;;;;5044026;28;20215;-61
2023/07/03 01:05:29;;;;;;;5.63;4.03;;;;;;;;;;5045881;28;20273;-63
2023/07/03 01:08:00;;;;;;;7.07;3.85;;;;;;;;;;5046035;28;20556;-61
2023/07/03 01:10:28;;;;;;;6.95;4.07;;;;;;;;;;5045809;28;20204;-62
2023/07/03 01:12:57;;;;;;;11.90;4.40;;;;;;;;;;5041147;28;20231;-62
2023/07/03 01:15:26;;;;;;;5.35;3.88;;;;;;;;;;5046685;28;20645;-62
2023/07/03 01:17:54;;;;;;;6.75;3.60;;;;;;;;;;5046123;28;20708;-62
2023/07/03 01:20:22;;;;;;;9.90;4.75;;;;;;;;;;5045433;28;20367;-62
2023/07/03 01:22:52;;;;;;;4.22;3.58;;;;;;;;;;5046345;28;20206;-62
2023/07/03 01:25:23;;;;;;;8.95;3.90;;;;;;;;;;5046307;28;20208;-62
2023/07/03 01:27:51;;;;;;;4.60;4.10;;;;;;;;;;5045894;28;20777;-62
2023/07/03 01:30:20;;;;;;;6.68;3.97;;;;;;;;;;5045389;28;20206;-62
2023/07/03 01:32:49;;;;;;;10.40;4.18;;;;;;;;;;5045374;28;20214;-61
2023/07/03 01:35:17;;;;;;;4.97;3.88;;;;;;;;;;5045778;28;20204;-62
2023/07/03 01:37:46;;;;;;;6.45;3.80;;;;;;;;;;5045632;28;20213;-61
2023/07/03 01:40:15;;;;;;;6.57;3.85;;;;;;;;;;5046134;28;20203;-61
2023/07/03 01:42:43;;;;;;;7.32;4.07;;;;;;;;;;5045719;28;20231;-62
2023/07/03 01:45:11;;;;;;;8.23;4.10;;;;;;;;;;5045789;28;20709;-60
2023/07/03 01:47:38;;;;;;;4.38;3.92;;;;;;;;;;5044774;28;20211;-60
2023/07/03 01:50:06;;;;;;;7.55;3.60;;;;;;;;;;5045952;28;20222;-60
2023/07/03 01:52:38;;;;;;;7.30;3.38;;;;;;;;;;5049212;28;20675;-60
2023/07/03 01:55:07;;;;;;;6.50;3.60;;;;;;;;;;5049941;28;20971;-60
2023/07/03 01:57:37;;;;;;;8.52;4.15;;;;;;;;;;5049281;28;20212;-61
2023/07/03 02:00:09;;;;;;;8.38;3.83;;;;;;;;;;5049957;28;20212;-60
2023/07/03 02:02:37;;;;;;;11.82;4.78;;;;;;;;;;5049066;28;20208;-60
2023/07/03 02:05:07;;;;;;;6.82;3.65;;;;;;;;;;5047164;28;20204;-62
2023/07/03 02:07:35;;;;;;;7.68;4.10;;;;;;;;;;5045635;28;20354;-60
2023/07/03 02:10:03;;;;;;;7.00;3.33;;;;;;;;;;5047866;28;20215;-62
2023/07/03 02:12:30;;;;;;;6.90;4.13;;;;;;;;;;5049058;28;20230;-60
2023/07/03 02:15:02;;;;;;;4.93;3.10;;;;;;;;;;5049725;28;20234;-60
2023/07/03 02:17:30;;;;;;;4.63;3.45;;;;;;;;;;5048997;28;20212;-60
2023/07/03 02:19:57;;;;;;;8.40;4.45;;;;;;;;;;5049258;28;20273;-60
2023/07/03 02:22:24;;;;;;;8.70;4.03;;;;;;;;;;5045143;28;20222;-60
2023/07/03 02:24:51;;;;;;;5.82;3.95;;;;;;;;;;5045233;28;20729;-60
2023/07/03 02:27:19;;;;;;;5.93;3.40;;;;;;;;;;5049000;28;20207;-60
2023/07/03 02:29:46;;;;;;;6.00;3.70;;;;;;;;;;5049063;28;20211;-60
2023/07/03 02:32:13;;;;;;;10.02;3.75;;;;;;;;;;5048912;28;20204;-60
2023/07/03 02:34:42;;;;;;;5.80;3.80;;;;;;;;;;5048702;28;20273;-60
2023/07/03 02:37:10;;;;;;;7.07;3.70;;;;;;;;;;5047629;28;20219;-60
2023/07/03 02:39:37;;;;;;;7.55;4.13;;;;;;;;;;5048196;28;20341;-60
2023/07/03 02:42:04;;;;;;;5.38;3.75;;;;;;;;;;5048671;28;20453;-60
2023/07/03 02:44:31;;;;;;;6.47;4.13;;;;;;;;;;5048447;28;20234;-60
2023/07/03 02:46:58;;;;;;;10.65;4.13;;;;;;;;;;5049129;28;20208;-60
2023/07/03 02:49:29;;;;;;;10.18;4.22;;;;;;;;;;5048494;28;20203;-61
2023/07/03 02:51:57;;;;;;;6.80;3.90;;;;;;;;;;5046176;28;20230;-63
2023/07/03 02:54:24;;;;;;;7.43;4.10;;;;;;;;;;5047903;28;20203;-61
2023/07/03 02:56:52;;;;;;;7.88;3.47;;;;;;;;;;5034900;28;20743;-61
2023/07/03 02:59:19;;;;;;;8.10;4.20;;;;;;;;;;5048441;28;20230;-60
2023/07/03 03:01:46;;;;;;;8.15;3.80;;;;;;;;;;5047241;28;20215;-61
2023/07/03 03:04:16;;;;;;;6.15;3.70;;;;;;;;;;5048684;28;20824;-60
2023/07/03 03:06:43;;;;;;;11.63;4.55;;;;;;;;;;5048251;28;20588;-62
2023/07/03 03:09:11;;;;;;;7.25;3.65;;;;;;;;;;5047804;28;20211;-61
2023/07/03 03:11:38;;;;;;;8.65;3.67;;;;;;;;;;5047929;28;20203;-61
2023/07/03 03:14:05;;;;;;;7.40;4.03;;;;;;;;;;5046057;28;20207;-61
2023/07/03 03:16:33;;;;;;;8.50;3.88;;;;;;;;;;5048421;28;20207;-61
2023/07/03 03:19:01;;;;;;;7.13;4.05;;;;;;;;;;5047928;28;20763;-61
2023/07/03 03:21:28;;;;;;;5.50;4.10;;;;;;;;;;5038131;28;20773;-61
2023/07/03 03:23:55;;;;;;;7.28;4.05;;;;;;;;;;5047361;28;20208;-60
2023/07/03 03:26:23;;;;;;;9.80;3.50;;;;;;;;;;5048168;28;20253;-61
2023/07/03 03:28:50;;;;;;;4.85;3.80;;;;;;;;;;5039822;28;20263;-60
2023/07/03 03:31:17;;;;;;;6.63;3.83;;;;;;;;;;5047930;28;20666;-61
2023/07/03 03:33:44;;;;;;;5.43;3.58;;;;;;;;;;5047960;28;20212;-60
2023/07/03 03:36:11;;;;;;;8.38;3.58;;;;;;;;;;5047684;28;20207;-61
2023/07/03 03:38:39;;;;;;;8.48;4.38;;;;;;;;;;5047717;28;20427;-60
2023/07/03 03:41:06;;;;;;;6.03;4.30;;;;;;;;;;5047243;28;20564;-61
2023/07/03 03:43:34;;;;;;;5.25;3.80;;;;;;;;;;5047071;28;20235;-62
2023/07/03 03:46:02;;;;;;;10.35;3.67;;;;;;;;;;5047721;28;20210;-61
2023/07/03 03:48:30;;;;;;;6.68;3.78;;;;;;;;;;5047118;28;20246;-61
2023/07/03 03:50:57;;;;;;;4.88;3.47;;;;;;;;;;5047585;28;20204;-61
2023/07/03 03:53:24;;;;;;;6.97;3.75;;;;;;;;;;5047251;28;20207;-61
2023/07/03 03:55:52;;;;;;;7.40;3.75;;;;;;;;;;5047336;28;20236;-61
2023/07/03 03:58:19;;;;;;;6.45;3.58;;;;;;;;;;5046866;28;20214;-61
2023/07/03 04:00:50;;;;;;;5.78;3.80;;;;;;;;;;5047363;28;20207;-61
2023/07/03 04:03:17;;;;;;;7.88;3.97;;;;;;;;;;5047081;28;20203;-61
2023/07/03 04:05:45;;;;;;;4.25;3.28;;;;;;;;;;5047920;28;20601;-61
2023/07/03 04:08:12;;;;;;;8.52;3.88;;;;;;;;;;5047492;28;20215;-60
2023/07/03 04:10:39;;;;;;;7.72;4.03;;;;;;;;;;5046666;28;20218;-60
2023/07/03 04:13:06;;;;;;;9.85;4.15;;;;;;;;;;5045739;28;20231;-61
2023/07/03 04:15:36;;;;;;;4.45;3.70;;;;;;;;;;5045772;28;20218;-61
2023/07/03 04:18:04;;;;;;;5.60;3.40;;;;;;;;;;5047042;28;20250;-60
2023/07/03 04:20:33;;;;;;;5.38;3.88;;;;;;;;;;5046847;28;20219;-60
2023/07/03 04:23:00;;;;;;;4.55;3.60;;;;;;;;;;5046905;28;20257;-61
2023/07/03 04:25:28;;;;;;;6.28;3.83;;;;;;;;;;5046601;28;20261;-60
2023/07/03 04:27:55;;;;;;;5.18;3.17;;;;;;;;;;5046705;28;20214;-60
2023/07/03 04:30:23;;;;;;;5.78;3.65;;;;;;;;;;5046690;28;20200;-60
2023/07/03 04:32:54;;;;;;;6.25;3.25;;;;;;;;;;5046392;28;20580;-60
2023/07/03 04:35:23;;;;;;;5.82;3.50;;;;;;;;;;5046578;28;20199;-61
2023/07/03 04:37:50;;;;;;;7.00;3.30;;;;;;;;;;5045419;28;20210;-61
2023/07/03 04:40:18;;;;;;;7.45;3.55;;;;;;;;;;5046077;28;20239;-60
2023/07/03 04:42:45;;;;;;;4.80;3.67;;;;;;;;;;5045331;28;20640;-57
2023/07/03 04:45:13;;;;;;;6.65;3.20;;;;;;;;;;5038542;28;20724;-57
2023/07/03 04:47:40;;;;;;;5.78;3.67;;;;;;;;;;5046002;28;20243;-57
2023/07/03 04:50:08;;;;;;;7.13;3.08;;;;;;;;;;5046523;28;20292;-58
2023/07/03 04:52:38;;;;;;;4.63;2.92;;;;;;;;;;5046255;28;20226;-57
2023/07/03 04:55:06;;;;;;;6.47;3.17;;;;;;;;;;5041766;28;20347;-58
2023/07/03 04:57:33;;;;;;;7.38;3.22;;;;;;;;;;5026840;28;20212;-58
2023/07/03 05:00:00;;;;;;;4.93;3.38;;;;;;;;;;5041193;28;20239;-58
2023/07/03 05:02:28;;;;;;;3.60;3.10;;;;;;;;;;5042881;28;20674;-58
2023/07/03 05:04:55;;;;;;;3.65;2.72;;;;;;;;;;5046014;28;20206;-58
2023/07/03 05:07:23;;;;;;;5.70;3.50;;;;;;;;;;5046456;28;20211;-59
2023/07/03 05:09:53;;;;;;;4.85;3.17;;;;;;;;;;5046531;28;20208;-58
2023/07/03 05:12:20;;;;;;;7.75;3.30;;;;;;;;;;5045787;28;20421;-58
2023/07/03 05:14:47;;;;;;;8.00;3.33;;;;;;;;;;5043950;28;20218;-58
2023/07/03 05:17:14;;;;;;;4.50;2.83;;;;;;;;;;5044858;28;20214;-58
2023/07/03 05:19:41;;;;;;;3.50;2.97;;;;;;;;;;5046246;28;20238;-58
2023/07/03 05:22:08;;;;;;;5.07;3.05;;;;;;;;;;5046779;28;20207;-58
2023/07/03 05:24:35;;;;;;;6.70;3.17;;;;;;;;;;5045821;28;20790;-57
2023/07/03 05:27:04;;;;;;;4.70;2.67;;;;;;;;;;5050218;28;20199;-58
2023/07/03 05:29:32;;;;;;;5.85;2.88;;;;;;;;;;5049859;28;20211;-58
2023/07/03 05:32:00;;;;;;;4.82;2.65;;;;;;;;;;5048943;28;20206;-57
2023/07/03 05:34:27;;;;;;;7.88;2.75;;;;;;;;;;5045379;28;20214;-58
2023/07/03 05:36:56;;;;;;;5.18;2.78;;;;;;;;;;5048816;28;20682;-62
2023/07/03 05:39:23;;;;;;;10.60;2.92;;;;;;;;;;5045037;28;20224;-61
2023/07/03 05:41:50;;;;;;;4.32;3.20;;;;;;;;;;5043436;28;20646;-61
2023/07/03 05:44:18;;;;;;;10.55;3.25;;;;;;;;;;5030080;28;20251;-62
2023/07/03 05:46:45;;;;;;;15.40;4.43;;;;;;;;;;5030251;28;20213;-63
2023/07/03 05:49:13;;;;;;;12.38;4.07;;;;;;;;;;5046168;28;20200;-62
2023/07/03 05:51:40;;;;;;;9.55;4.05;;;;;;;;;;5037748;28;20212;-61
2023/07/03 05:54:07;;;;;;;11.88;3.40;;;;;;;;;;5041776;28;20643;-61
2023/07/03 05:56:34;;;;;;;4.03;2.65;;;;;;;;;;5044824;28;20307;-62
2023/07/03 05:59:01;;;;;;;7.97;2.92;;;;;;;;;;5047896;28;20212;-61
2023/07/03 06:01:29;;;;;;;3.88;2.53;;;;;;;;;;5049237;28;20226;-62
2023/07/03 06:03:58;;;;;;;6.75;2.55;;;;;;;;;;5048835;28;20749;-61
2023/07/03 06:06:25;;;;;;;7.53;2.67;;;;;;;;;;5048621;28;21965;-61
2023/07/03 06:08:52;;;;;;;3.50;2.60;;;;;;;;;;5049052;28;20208;-62
2023/07/03 06:11:19;;;;;;;2.42;2.33;;;;;;;;;;5048895;28;20208;-62
2023/07/03 06:13:46;;;;;;;5.18;2.50;;;;;;;;;;5049183;28;20211;-62
2023/07/03 06:16:13;;;;;;;2.55;2.13;;;;;;;;;;5048914;28;20208;-62
2023/07/03 06:18:41;;;;;;;3.30;2.17;;;;;;;;;;5047686;28;20208;-62
2023/07/03 06:21:08;;;;;;;5.78;2.25;;;;;;;;;;5044982;28;20243;-61
2023/07/03 06:23:35;;;;;;;5.22;2.22;;;;;;;;;;5048370;28;20204;-61
2023/07/03 06:26:02;;;;;;;4.75;2.53;;;;;;;;;;5048783;28;20215;-62
2023/07/03 06:28:29;;;;;;;6.00;2.08;;;;;;;;;;5048122;28;20200;-62
2023/07/03 06:30:56;;;;;;;5.32;1.60;;;;;;;;;;5048645;28;20204;-61
2023/07/03 06:33:23;;;;;;;3.15;1.80;;;;;;;;;;5048496;28;20665;-62
2023/07/03 06:35:51;;;;;;;4.43;2.03;;;;;;;;;;5048510;28;20222;-62
2023/07/03 06:38:19;;;;;;;3.70;1.77;;;;;;;;;;5047533;28;20204;-62
2023/07/03 06:40:46;;;;;;;3.28;1.80;;;;;;;;;;5048175;28;20231;-62
2023/07/03 06:43:13;;;;;;;4.63;1.83;;;;;;;;;;5048591;28;20227;-62
2023/07/03 06:45:40;;;;;;;4.80;1.80;;;;;;;;;;5047668;28;20235;-62
2023/07/03 06:48:07;;;;;;;3.70;2.03;;;;;;;;;;5048442;28;20212;-62
2023/07/03 06:50:34;;;;;;;3.88;1.73;;;;;;;;;;5048027;28;20569;-62
2023/07/03 06:53:02;;;;;;;4.15;1.40;;;;;;;;;;5048811;28;20341;-62
2023/07/03 06:55:29;;;;;;;2.45;1.75;;;;;;;;;;5047724;28;20208;-62
2023/07/03 06:57:58;;;;;;;3.15;1.67;;;;;;;;;;5048527;28;20677;-62
2023/07/03 07:00:25;;;;;;;2.75;1.45;;;;;;;;;;5047175;28;20599;-62
2023/07/03 07:02:52;;;;;;;3.17;1.50;;;;;;;;;;5044616;28;20208;-62
2023/07/03 07:05:21;;;;;;;2.20;1.60;;;;;;;;;;5046009;28;20200;-62
2023/07/03 07:07:48;;;;;;;2.67;1.55;;;;;;;;;;5048128;28;20583;-62
2023/07/03 07:10:16;;;;;;;2.15;1.35;;;;;;;;;;5048017;28;20204;-62
2023/07/03 07:12:43;;;;;;;7.25;2.08;;;;;;;;;;5047658;28;20199;-62
2023/07/03 07:15:10;;;;;;;2.95;1.65;;;;;;;;;;5047512;28;20207;-61
2023/07/03 07:17:37;;;;;;;4.40;1.30;;;;;;;;;;5047598;28;20215;-61
2023/07/03 07:20:05;;;;;;;2.40;1.48;;;;;;;;;;5046915;28;20223;-61
2023/07/03 07:22:32;;;;;;;2.65;1.23;;;;;;;;;;5047921;28;20208;-61
2023/07/03 07:24:59;;;;;;;5.22;1.60;;;;;;;;;;5047582;28;20211;-62
2023/07/03 07:27:27;;;;;;;4.28;1.20;;;;;;;;;;5043973;28;20723;-62
2023/07/03 07:29:54;;;;;;;3.75;1.50;;;;;;;;;;5046859;28;20670;-58
2023/07/03 07:32:24;;;;;;;3.33;1.65;;;;;;;;;;5043679;28;20203;-59
2023/07/03 07:34:51;;;;;;;3.50;1.42;;;;;;;;;;5046670;28;20612;-59
2023/07/03 07:37:18;;;;;;;4.53;1.63;;;;;;;;;;5047350;28;20207;-59
2023/07/03 07:39:45;;;;;;;2.08;1.35;;;;;;;;;;5047128;28;20354;-59
2023/07/03 07:42:12;;;;;;;5.65;1.70;;;;;;;;;;5047824;28;20251;-59
2023/07/03 07:44:41;;;;;;;4.35;1.50;;;;;;;;;;5047331;28;20733;-59
2023/07/03 07:47:09;;;;;;;2.55;1.10;;;;;;;;;;5047255;28;20451;-59
2023/07/03 07:49:38;;;;;;;1.08;0.93;;;;;;;;;;5046623;28;20710;-59
2023/07/03 07:52:06;;;;;;;4.22;1.48;;;;;;;;;;5046706;28;20204;-59
2023/07/03 07:54:33;;;;;;;2.47;1.48;;;;;;;;;;5047338;28;20208;-59
2023/07/03 07:57:00;;;;;;;3.83;1.15;;;;;;;;;;5040139;28;20319;-59
2023/07/03 07:59:28;;;;;;;1.60;1.20;;;;;;;;;;5044224;28;20261;-59
2023/07/03 08:01:56;;;;;;;2.22;1.20;;;;;;;;;;5046724;28;20234;-59
2023/07/03 08:04:23;;;;;;;2.33;0.93;;;;;;;;;;5046966;28;20200;-60
2023/07/03 08:06:50;;;;;;;3.00;1.25;;;;;;;;;;5047080;28;20588;-61
2023/07/03 08:09:17;;;;;;;4.72;1.50;;;;;;;;;;5046538;28;20215;-59
2023/07/03 08:11:44;;;;;;;1.15;1.15;;;;;;;;;;5046542;28;20204;-59
2023/07/03 08:14:11;;;;;;;2.25;1.40;;;;;;;;;;5046601;28;20207;-60
2023/07/03 08:16:38;;;;;;;1.25;1.00;;;;;;;;;;5041232;28;20210;-60
2023/07/03 08:19:20;;;;;;;1.17;0.90;;;;;;;;;;5047121;28;20238;-59
2023/07/03 08:21:49;;;;;;;1.38;0.98;;;;;;;;;;5029491;28;20219;-60
2023/07/03 08:24:17;;;;;;;1.75;0.98;;;;;;;;;;5047430;28;20579;-57
2023/07/03 08:26:49;;;;;;;3.80;1.40;;;;;;;;;;5046091;28;20196;-57
2023/07/03 08:29:16;;;;;;;1.20;0.95;;;;;;;;;;5046507;28;20273;-57
2023/07/03 08:31:43;;;;;;;3.20;1.02;;;;;;;;;;5046652;28;20207;-58
2023/07/03 08:34:11;;;;;;;1.75;0.90;;;;;;;;;;5045764;28;20203;-58
2023/07/03 08:39:24;;;;;;;1.75;1.20;;;;;;;;;;5006083;28;20405;-60
2023/07/03 08:41:52;;;;;;;4.00;1.50;;;;;;;;;;5036934;28;20743;-61
2023/07/03 08:44:19;;;;;;;3.17;1.20;;;;;;;;;;5046459;28;20263;-60
2023/07/03 08:46:47;;;;;;;1.23;1.00;;;;;;;;;;5046154;28;20211;-58
2023/07/03 08:49:15;;;;;;;1.42;1.10;;;;;;;;;;5044837;28;20211;-59
2023/07/03 08:51:42;;;;;;;2.13;1.30;;;;;;;;;;5043213;28;20203;-59
2023/07/03 08:54:16;;;;;;;6.40;1.30;;;;;;;;;;5043871;28;20215;-58
2023/07/03 08:56:44;;;;;;;4.18;1.30;;;;;;;;;;5034904;28;20218;-58
2023/07/03 08:59:11;;;;;;;1.13;1.05;;;;;;;;;;5037483;28;20467;-58
2023/07/03 09:01:54;;;;;;;1.75;0.98;;;;;;;;;;5041916;28;20223;-59
2023/07/03 09:04:26;;;;;;;2.58;1.02;;;;;;;;;;5042297;28;20302;-59
2023/07/03 09:06:55;;;;;;;1.20;0.82;;;;;;;;;;5042973;28;20210;-58
2023/07/03 09:09:26;;;;;;;1.48;1.13;;;;;;;;;;5044693;28;20939;-58
2023/07/03 09:11:58;;;;;;;3.38;1.25;;;;;;;;;;5043129;28;20296;-59
2023/07/03 09:14:27;;;;;;;3.20;1.10;;;;;;;;;;5043866;28;20767;-58
2023/07/03 09:16:55;;;;;;;2.20;0.82;;;;;;;;;;5044074;28;20255;-58
2023/07/03 09:19:23;;;;;;;2.25;1.20;;;;;;;;;;5043868;28;20211;-58
2023/07/03 09:21:52;;;;;;;2.85;1.13;;;;;;;;;;5042915;28;20219;-58
2023/07/03 09:24:21;;;;;;;2.58;1.25;;;;;;;;;;5044828;28;20265;-59
2023/07/03 09:26:52;;;;;;;1.38;1.27;;;;;;;;;;5045320;28;20212;-59
2023/07/03 09:29:20;;;;;;;1.02;0.77;;;;;;;;;;5042745;28;20207;-58
2023/07/03 09:31:47;;;;;;;2.00;1.25;;;;;;;;;;5044982;28;20211;-58
2023/07/03 09:34:15;;;;;;;2.58;1.17;;;;;;;;;;5045283;28;20669;-57
2023/07/03 09:36:43;;;;;;;1.52;1.25;;;;;;;;;;5045420;28;20222;-59
2023/07/03 09:39:11;;;;;;;0.80;0.77;;;;;;;;;;5045030;28;20872;-59
2023/07/03 09:41:38;;;;;;;2.50;1.05;;;;;;;;;;5044750;28;20227;-57
2023/07/03 09:44:11;;;;;;;1.35;1.25;;;;;;;;;;5044969;28;20246;-58
2023/07/03 09:46:40;;;;;;;2.47;1.27;;;;;;;;;;5044123;28;20272;-57
2023/07/03 09:49:09;;;;;;;1.38;1.02;;;;;;;;;;5044081;28;20212;-58
2023/07/03 09:51:38;;;;;;;1.75;1.23;;;;;;;;;;5025618;28;20207;-60
2023/07/03 09:54:07;;;;;;;1.88;1.27;;;;;;;;;;5032283;28;20208;-57
2023/07/03 09:56:35;;;;;;;4.30;1.25;;;;;;;;;;5042357;28;20215;-57
2023/07/03 09:59:04;;;;;;;4.47;1.10;;;;;;;;;;5044965;28;20219;-57
2023/07/03 10:01:32;;;;;;;1.45;1.13;;;;;;;;;;5039799;28;20245;-58
2023/07/03 10:04:08;;;;;;;0.80;0.80;;;;;;;;;;5043666;28;20207;-57
2023/07/03 10:06:36;;;;;;;3.00;0.80;;;;;;;;;;5030817;28;20227;-58
2023/07/03 10:09:05;;;;;;;0.73;0.73;;;;;;;;;;5043524;28;20523;-57
2023/07/03 10:11:37;;;;;;;2.20;1.10;;;;;;;;;;5044317;28;20204;-57
2023/07/03 10:14:05;;;;;;;1.77;1.17;;;;;;;;;;5048887;28;20204;-57
2023/07/03 10:16:33;;;;;;;1.73;1.10;;;;;;;;;;5044359;28;20215;-57
2023/07/03 10:19:00;;;;;;;1.60;1.40;;;;;;;;;;5048397;28;20582;-57
2023/07/03 10:21:29;;;;;;;3.15;1.20;;;;;;;;;;5045067;28;20235;-57
2023/07/03 10:23:56;;;;;;;3.45;1.23;;;;;;;;;;5047510;28;20208;-57
2023/07/03 10:26:24;;;;;;;3.58;1.38;;;;;;;;;;5046558;28;20211;-58
2023/07/03 10:28:55;;;;;;;1.52;1.30;;;;;;;;;;5048864;28;20270;-58
2023/07/03 10:31:25;;;;;;;1.15;1.05;;;;;;;;;;5048075;28;20192;-57
2023/07/03 10:33:58;;;;;;;1.50;1.17;;;;;;;;;;5048804;28;20274;-57
2023/07/03 10:36:27;;;;;;;2.20;1.25;;;;;;;;;;5047889;28;20220;-60
2023/07/03 10:38:56;;;;;;;3.47;1.02;;;;;;;;;;5028912;28;20634;-59
2023/07/03 10:41:26;;;;;;;1.30;1.30;;;;;;;;;;5028284;28;20716;-59
2023/07/03 10:43:55;;;;;;;4.28;1.55;;;;;;;;;;5042988;28;20243;-59
2023/07/03 10:46:25;;;;;;;1.25;0.80;;;;;;;;;;5048091;28;20218;-59
2023/07/03 10:48:53;;;;;;;2.42;1.50;;;;;;;;;;5037309;28;20212;-59
2023/07/03 10:51:23;;;;;;;1.52;1.10;;;;;;;;;;5048591;28;20234;-60
2023/07/03 10:53:53;;;;;;;1.30;1.20;;;;;;;;;;5046466;28;20235;-61
2023/07/03 10:56:24;;;;;;;1.25;1.05;;;;;;;;;;5044049;28;20224;-59
2023/07/03 10:58:56;;;;;;;2.42;1.30;;;;;;;;;;5048218;28;20212;-60
2023/07/03 11:01:25;;;;;;;2.28;1.20;;;;;;;;;;5035588;28;20367;-59
2023/07/03 11:03:56;;;;;;;0.80;0.80;;;;;;;;;;5027527;28;20211;-58
2023/07/03 11:06:27;;;;;;;1.95;1.00;;;;;;;;;;5045479;28;20208;-60
2023/07/03 11:08:57;;;;;;;1.10;1.00;;;;;;;;;;5047333;28;20315;-60
2023/07/03 11:11:30;;;;;;;1.00;1.00;;;;;;;;;;5047024;28;20211;-60
2023/07/03 11:14:01;;;;;;;1.52;1.25;;;;;;;;;;5047138;28;20589;-59
2023/07/03 11:19:39;;;;;;;1.85;1.00;;;;;;;;;;5001124;28;20221;-59
2023/07/03 11:22:12;;;;;;;1.75;1.00;;;;;;;;;;4993044;28;20225;-60
2023/07/03 11:24:44;;;;;;;2.50;0.85;;;;;;;;;;5046625;28;20199;-60
2023/07/03 11:27:17;;;;;;;1.30;1.13;;;;;;;;;;5046620;28;20270;-60
2023/07/03 11:29:44;;;;;;;2.47;0.90;;;;;;;;;;5047275;28;20207;-60
2023/07/03 11:32:13;;;;;;;1.85;0.98;;;;;;;;;;5044106;28;20764;-59
2023/07/03 11:34:40;;;;;;;1.55;1.20;;;;;;;;;;5046978;28;20689;-60
2023/07/03 11:37:22;;;;;;;1.55;1.08;;;;;;;;;;5047330;28;20211;-60
2023/07/03 11:39:50;;;;;;;1.05;0.80;;;;;;;;;;5047106;28;20211;-57
2023/07/03 11:42:23;;;;;;;1.42;1.33;;;;;;;;;;5046527;28;20598;-57
2023/07/03 11:45:00;;;;;;;1.45;1.20;;;;;;;;;;5047502;28;20235;-60
2023/07/03 11:47:29;;;;;;;2.40;1.02;;;;;;;;;;5046661;28;20257;-60
2023/07/03 11:49:59;;;;;;;1.50;0.90;;;;;;;;;;5046717;28;20231;-60
2023/07/03 11:52:28;;;;;;;1.20;1.10;;;;;;;;;;5046675;28;20300;-60
2023/07/03 11:55:06;;;;;;;1.27;0.93;;;;;;;;;;5046407;28;20244;-60
2023/07/03 11:57:35;;;;;;;1.85;1.10;;;;;;;;;;5046337;28;20200;-57
2023/07/03 12:00:17;;;;;;;2.58;1.17;;;;;;;;;;5046619;28;20215;-57
2023/07/03 12:02:51;;;;;;;1.30;1.20;;;;;;;;;;5042359;28;20239;-57
2023/07/03 12:05:37;;;;;;;1.45;1.00;;;;;;;;;;5046749;28;20218;-57
2023/07/03 12:08:04;;;;;;;0.90;0.90;;;;;;;;;;5044913;28;20212;-60
2023/07/03 12:10:55;;;;;;;2.20;1.05;;;;;;;;;;5043850;28;20266;-57
2023/07/03 12:13:30;;;;;;;1.65;0.88;;;;;;;;;;5026054;28;20216;-57
2023/07/03 12:15:57;;;;;;;2.50;0.95;;;;;;;;;;5045641;28;20211;-58
2023/07/03 12:18:24;;;;;;;1.10;1.10;;;;;;;;;;5045407;28;20244;-57
2023/07/03 12:20:57;;;;;;;2.25;1.05;;;;;;;;;;5046268;28;20207;-57
2023/07/03 12:23:38;;;;;;;2.53;1.15;;;;;;;;;;5044923;28;20207;-58
2023/07/03 12:26:06;;;;;;;0.95;0.95;;;;;;;;;;5045995;28;20222;-57
2023/07/03 12:28:34;;;;;;;3.67;1.05;;;;;;;;;;5045986;28;20212;-57
2023/07/03 12:31:18;;;;;;;2.20;1.33;;;;;;;;;;5045240;28;20216;-58
2023/07/03 12:33:53;;;;;;;0.95;0.95;;;;;;;;;;5033912;28;20208;-58
2023/07/03 12:36:24;;;;;;;1.02;1.02;;;;;;;;;;5036761;28;20206;-59
2023/07/03 12:38:52;;;;;;;0.90;0.90;;;;;;;;;;5042817;28;20207;-60
2023/07/03 12:41:27;;;;;;;1.25;0.88;;;;;;;;;;5045304;28;20238;-58
2023/07/03 12:43:56;;;;;;;1.00;1.00;;;;;;;;;;5045490;28;20246;-59
2023/07/03 12:46:27;;;;;;;1.33;1.23;;;;;;;;;;5046222;28;20212;-58
2023/07/03 12:49:09;;;;;;;1.38;1.05;;;;;;;;;;5046234;28;20200;-58
2023/07/03 12:51:36;;;;;;;1.10;1.10;;;;;;;;;;5045563;28;20650;-58
2023/07/03 12:54:03;;;;;;;2.28;1.00;;;;;;;;;;5045637;28;20211;-58
2023/07/03 12:56:31;;;;;;;1.90;1.20;;;;;;;;;;5045941;28;20207;-58
2023/07/03 12:59:00;;;;;;;1.27;1.20;;;;;;;;;;5046183;28;20215;-58
2023/07/03 13:01:27;;;;;;;1.40;1.23;;;;;;;;;;5046013;28;20235;-62
2023/07/03 13:03:54;;;;;;;1.40;1.30;;;;;;;;;;5033700;28;20211;-61
2023/07/03 13:06:23;;;;;;;1.33;1.23;;;;;;;;;;5038731;28;20252;-62
2023/07/03 13:08:51;;;;;;;1.00;1.00;;;;;;;;;;5035595;28;20568;-61
2023/07/03 13:11:31;;;;;;;2.38;1.30;;;;;;;;;;5039704;28;20203;-61
2023/07/03 13:14:08;;;;;;;1.33;0.90;;;;;;;;;;5040688;28;20207;-62
2023/07/03 13:16:35;;;;;;;3.08;1.42;;;;;;;;;;5040220;28;20218;-61
2023/07/03 13:19:03;;;;;;;1.23;0.95;;;;;;;;;;5039837;28;20212;-62
2023/07/03 13:21:30;;;;;;;0.90;0.90;;;;;;;;;;5031947;28;21728;-62
2023/07/03 13:24:05;;;;;;;4.20;1.40;;;;;;;;;;5034899;28;20204;-58
2023/07/03 13:26:32;;;;;;;1.50;1.40;;;;;;;;;;5036986;28;20207;-59
2023/07/03 13:29:00;;;;;;;1.17;1.17;;;;;;;;;;5043630;28;20208;-58
2023/07/03 13:31:30;;;;;;;1.00;1.00;;;;;;;;;;5044925;28;20203;-58
2023/07/03 13:34:02;;;;;;;1.50;1.40;;;;;;;;;;5045889;28;20318;-58
2023/07/03 13:36:30;;;;;;;1.35;1.25;;;;;;;;;;5044357;28;20214;-58
2023/07/03 13:39:01;;;;;;;1.00;1.00;;;;;;;;;;5042484;28;20437;-58
2023/07/03 13:41:28;;;;;;;1.30;1.20;;;;;;;;;;5044844;28;20302;-58
2023/07/03 13:43:56;;;;;;;3.08;1.30;;;;;;;;;;5026890;28;20247;-58
2023/07/03 13:46:24;;;;;;;0.88;0.88;;;;;;;;;;5037063;28;20207;-58
2023/07/03 13:48:53;;;;;;;1.55;0.98;;;;;;;;;;5035455;28;20311;-58
2023/07/03 13:51:20;;;;;;;1.48;1.30;;;;;;;;;;5029468;28;20587;-59
2023/07/03 13:53:48;;;;;;;1.30;1.20;;;;;;;;;;5045249;28;20215;-58
2023/07/03 13:56:15;;;;;;;1.50;0.98;;;;;;;;;;5048614;28;20737;-58
2023/07/03 13:58:42;;;;;;;1.63;1.10;;;;;;;;;;5046828;28;20363;-58
2023/07/03 14:01:09;;;;;;;1.20;1.10;;;;;;;;;;5049180;28;20206;-58
2023/07/03 14:03:36;;;;;;;1.05;0.95;;;;;;;;;;5048694;28;20242;-58
2023/07/03 14:06:05;;;;;;;1.40;1.20;;;;;;;;;;5041690;28;20257;-58
2023/07/03 14:08:33;;;;;;;1.00;1.00;;;;;;;;;;5047327;28;20215;-58
2023/07/03 14:11:00;;;;;;;1.40;1.40;;;;;;;;;;5047082;28;20231;-58
2023/07/03 14:13:27;;;;;;;1.02;0.93;;;;;;;;;;5047841;28;20203;-58
2023/07/03 14:18:58;;;;;;;1.10;1.10;;;;;;;;;;5033830;28;20932;-58
2023/07/03 14:21:26;;;;;;;1.40;1.20;;;;;;;;;;5045368;28;20211;-60
2023/07/03 14:23:53;;;;;;;1.05;0.80;;;;;;;;;;5047730;28;20715;-60
2023/07/03 14:26:22;;;;;;;2.15;1.20;;;;;;;;;;5047093;28;20211;-59
2023/07/03 14:28:49;;;;;;;2.83;1.52;;;;;;;;;;5047820;28;20211;-59
2023/07/03 14:31:17;;;;;;;1.10;1.10;;;;;;;;;;5046536;28;20289;-59
2023/07/03 14:33:44;;;;;;;1.10;1.10;;;;;;;;;;5044046;28;20220;-59
2023/07/03 14:36:11;;;;;;;1.15;1.00;;;;;;;;;;5028498;28;20779;-59
2023/07/03 14:38:40;;;;;;;2.08;1.00;;;;;;;;;;5045488;28;20656;-59
2023/07/03 14:41:07;;;;;;;2.70;0.90;;;;;;;;;;5044884;28;20217;-58
2023/07/03 14:43:34;;;;;;;1.80;1.10;;;;;;;;;;5040191;28;20239;-58
2023/07/03 14:46:01;;;;;;;1.08;1.08;;;;;;;;;;5041090;28;20207;-59
2023/07/03 14:48:28;;;;;;;1.63;1.20;;;;;;;;;;5047366;28;20244;-59
2023/07/03 14:50:56;;;;;;;0.90;0.90;;;;;;;;;;5038725;28;20212;-59
2023/07/03 14:53:23;;;;;;;1.52;0.90;;;;;;;;;;5030306;28;20214;-59
2023/07/03 14:55:54;;;;;;;4.13;1.50;;;;;;;;;;5042368;28;20212;-59
2023/07/03 14:58:21;;;;;;;1.17;0.85;;;;;;;;;;5046188;28;20215;-59
2023/07/03 15:00:49;;;;;;;1.10;1.10;;;;;;;;;;5045502;28;20636;-58